<?xml version="1.0" encoding="UTF-8" standalone="no" ?>
<gpx xmlns="http://www.topografix.com/GPX/1/1" xmlns:xsi="http://www.w3.org/2001/XMLSchema-instance" xsi:schemaLocation="http://www.topografix.com/GPX/1/1 http://www.topografix.com/GPX/1/1/gpx.xsd" version="1.1" creator="VisuGPX - https://www.visugpx.com">
  <metadata>
    <name>trail chambotte</name>
  </metadata>
  <trk>
    <name><![CDATA[trail chambotte]]></name>
    <trkseg>
      <trkpt lat="45.7733" lon="5.87505">
        <ele>699.155205</ele>
        <time>2021-04-09T18:44:48.251Z</time>
      </trkpt>
      <trkpt lat="45.77325" lon="5.87502">
        <ele>699.155205</ele>
        <time>2021-04-09T18:44:50.252Z</time>
      </trkpt>
      <trkpt lat="45.77309" lon="5.87484">
        <ele>699.155205</ele>
        <time>2021-04-09T18:44:58.148Z</time>
      </trkpt>
      <trkpt lat="45.773" lon="5.87472">
        <ele>699.155205</ele>
        <time>2021-04-09T18:45:05.224Z</time>
      </trkpt>
      <trkpt lat="45.77294" lon="5.87464">
        <ele>699.155205</ele>
        <time>2021-04-09T18:45:08.469Z</time>
      </trkpt>
      <trkpt lat="45.77266" lon="5.87464">
        <ele>699.155205</ele>
        <time>2021-04-09T18:45:24.159Z</time>
      </trkpt>
      <trkpt lat="45.77251" lon="5.87484">
        <ele>699.346605</ele>
        <time>2021-04-09T18:45:32.236Z</time>
      </trkpt>
      <trkpt lat="45.77242" lon="5.87477">
        <ele>699.739942</ele>
        <time>2021-04-09T18:45:43.420Z</time>
      </trkpt>
      <trkpt lat="45.77236" lon="5.87479">
        <ele>699.988883</ele>
        <time>2021-04-09T18:45:46.148Z</time>
      </trkpt>
      <trkpt lat="45.77235" lon="5.87481">
        <ele>700.069224</ele>
        <time>2021-04-09T18:45:46.909Z</time>
      </trkpt>
      <trkpt lat="45.77232" lon="5.87492">
        <ele>700.390149</ele>
        <time>2021-04-09T18:45:50.019Z</time>
      </trkpt>
      <trkpt lat="45.77225" lon="5.87609">
        <ele>703.591635</ele>
        <time>2021-04-09T18:46:29.818Z</time>
      </trkpt>
      <trkpt lat="45.77224" lon="5.87615">
        <ele>703.762582</ele>
        <time>2021-04-09T18:46:38.451Z</time>
      </trkpt>
      <trkpt lat="45.77222" lon="5.87618">
        <ele>703.875604</ele>
        <time>2021-04-09T18:46:41.234Z</time>
      </trkpt>
      <trkpt lat="45.77222" lon="5.87618">
        <ele>703.875604</ele>
        <time>2021-04-09T18:46:41.234Z</time>
      </trkpt>
      <trkpt lat="45.77221" lon="5.87622">
        <ele>703.999983</ele>
        <time>2021-04-09T18:46:44.314Z</time>
      </trkpt>
      <trkpt lat="45.77207" lon="5.87641">
        <ele>704.753169</ele>
        <time>2021-04-09T18:46:54.373Z</time>
      </trkpt>
      <trkpt lat="45.77172" lon="5.8775">
        <ele>711.086314</ele>
        <time>2021-04-09T18:48:07.005Z</time>
      </trkpt>
      <trkpt lat="45.77163" lon="5.87761">
        <ele>712.399587</ele>
        <time>2021-04-09T18:48:16.283Z</time>
      </trkpt>
      <trkpt lat="45.77142" lon="5.87785">
        <ele>715.165285</ele>
        <time>2021-04-09T18:48:38.976Z</time>
      </trkpt>
      <trkpt lat="45.77125" lon="5.87809">
        <ele>717.632307</ele>
        <time>2021-04-09T18:48:55.327Z</time>
      </trkpt>
      <trkpt lat="45.77106" lon="5.87849">
        <ele>721.252453</ele>
        <time>2021-04-09T18:49:19.319Z</time>
      </trkpt>
      <trkpt lat="45.77066" lon="5.87974">
        <ele>730.624128</ele>
        <time>2021-04-09T18:50:36.462Z</time>
      </trkpt>
      <trkpt lat="45.77065" lon="5.87995">
        <ele>732.044842</ele>
        <time>2021-04-09T18:50:46.358Z</time>
      </trkpt>
      <trkpt lat="45.77071" lon="5.88003">
        <ele>732.756501</ele>
        <time>2021-04-09T18:50:54.176Z</time>
      </trkpt>
      <trkpt lat="45.77081" lon="5.88003">
        <ele>733.772522</ele>
        <time>2021-04-09T18:51:01.014Z</time>
      </trkpt>
      <trkpt lat="45.77088" lon="5.88007">
        <ele>734.467591</ele>
        <time>2021-04-09T18:51:05.243Z</time>
      </trkpt>
      <trkpt lat="45.77088" lon="5.88007">
        <ele>734.467591</ele>
        <time>2021-04-09T18:51:05.243Z</time>
      </trkpt>
      <trkpt lat="45.77092" lon="5.88014">
        <ele>735.077306</ele>
        <time>2021-04-09T18:51:09.494Z</time>
      </trkpt>
      <trkpt lat="45.77074" lon="5.88047">
        <ele>737.868164</ele>
        <time>2021-04-09T18:51:31.063Z</time>
      </trkpt>
      <trkpt lat="45.77054" lon="5.88064">
        <ele>740.012296</ele>
        <time>2021-04-09T18:51:49.500Z</time>
      </trkpt>
      <trkpt lat="45.7704" lon="5.88068">
        <ele>741.385067</ele>
        <time>2021-04-09T18:51:58.021Z</time>
      </trkpt>
      <trkpt lat="45.77025" lon="5.88055">
        <ele>743.04775</ele>
        <time>2021-04-09T18:52:12.891Z</time>
      </trkpt>
      <trkpt lat="45.76996" lon="5.88005">
        <ele>747.277883</ele>
        <time>2021-04-09T18:52:45.617Z</time>
      </trkpt>
      <trkpt lat="45.76966" lon="5.87985">
        <ele>750.297551</ele>
        <time>2021-04-09T18:53:10.156Z</time>
      </trkpt>
      <trkpt lat="45.76924" lon="5.87992">
        <ele>754.291995</ele>
        <time>2021-04-09T18:53:43.121Z</time>
      </trkpt>
      <trkpt lat="45.76891" lon="5.88019">
        <ele>757.819245</ele>
        <time>2021-04-09T18:54:10.395Z</time>
      </trkpt>
      <trkpt lat="45.76868" lon="5.88034">
        <ele>760.106454</ele>
        <time>2021-04-09T18:54:26.854Z</time>
      </trkpt>
      <trkpt lat="45.76868" lon="5.88034">
        <ele>760.106454</ele>
        <time>2021-04-09T18:54:27.607Z</time>
      </trkpt>
      <trkpt lat="45.76856" lon="5.88045">
        <ele>761.420664</ele>
        <time>2021-04-09T18:54:38.598Z</time>
      </trkpt>
      <trkpt lat="45.76823" lon="5.88096">
        <ele>765.937125</ele>
        <time>2021-04-09T18:55:13.347Z</time>
      </trkpt>
      <trkpt lat="45.76797" lon="5.88198">
        <ele>772.848941</ele>
        <time>2021-04-09T18:56:10.177Z</time>
      </trkpt>
      <trkpt lat="45.76782" lon="5.88281">
        <ele>778.600266</ele>
        <time>2021-04-09T18:56:53.274Z</time>
      </trkpt>
      <trkpt lat="45.76755" lon="5.88359">
        <ele>784.548527</ele>
        <time>2021-04-09T18:57:37.817Z</time>
      </trkpt>
      <trkpt lat="45.76749" lon="5.88368">
        <ele>785.424215</ele>
        <time>2021-04-09T18:57:44.642Z</time>
      </trkpt>
      <trkpt lat="45.76748" lon="5.88375">
        <ele>785.918282</ele>
        <time>2021-04-09T18:57:48.218Z</time>
      </trkpt>
      <trkpt lat="45.76745" lon="5.88387">
        <ele>786.766714</ele>
        <time>2021-04-09T18:57:54.673Z</time>
      </trkpt>
      <trkpt lat="45.76716" lon="5.88435">
        <ele>791.133701</ele>
        <time>2021-04-09T18:58:31.401Z</time>
      </trkpt>
      <trkpt lat="45.76701" lon="5.88472">
        <ele>794.122177</ele>
        <time>2021-04-09T18:58:53.857Z</time>
      </trkpt>
      <trkpt lat="45.767" lon="5.88503">
        <ele>796.317679</ele>
        <time>2021-04-09T18:59:12.346Z</time>
      </trkpt>
      <trkpt lat="45.76699" lon="5.88502">
        <ele>796.503196</ele>
        <time>2021-04-09T18:59:13.919Z</time>
      </trkpt>
      <trkpt lat="45.7669" lon="5.88515">
        <ele>797.772027</ele>
        <time>2021-04-09T18:59:23.062Z</time>
      </trkpt>
      <trkpt lat="45.76686" lon="5.88523">
        <ele>798.45467</ele>
        <time>2021-04-09T18:59:30.365Z</time>
      </trkpt>
      <trkpt lat="45.76668" lon="5.8853">
        <ele>800.418093</ele>
        <time>2021-04-09T18:59:44.836Z</time>
      </trkpt>
      <trkpt lat="45.76626" lon="5.8853">
        <ele>804.604322</ele>
        <time>2021-04-09T19:00:16.645Z</time>
      </trkpt>
      <trkpt lat="45.7655" lon="5.88549">
        <ele>811.826537</ele>
        <time>2021-04-09T19:01:16.085Z</time>
      </trkpt>
      <trkpt lat="45.76509" lon="5.88564">
        <ele>813.877608</ele>
        <time>2021-04-09T19:01:43.944Z</time>
      </trkpt>
      <trkpt lat="45.76488" lon="5.88572">
        <ele>814.9436</ele>
        <time>2021-04-09T19:01:57.084Z</time>
      </trkpt>
      <trkpt lat="45.76425" lon="5.88583">
        <ele>818.121339</ele>
        <time>2021-04-09T19:02:33.411Z</time>
      </trkpt>
      <trkpt lat="45.7636" lon="5.8861">
        <ele>819.686702</ele>
        <time>2021-04-09T19:03:07.889Z</time>
      </trkpt>
      <trkpt lat="45.76338" lon="5.88624">
        <ele>819.318746</ele>
        <time>2021-04-09T19:03:19.635Z</time>
      </trkpt>
      <trkpt lat="45.7631" lon="5.88655">
        <ele>818.771554</ele>
        <time>2021-04-09T19:03:36.447Z</time>
      </trkpt>
      <trkpt lat="45.7629" lon="5.88678">
        <ele>818.372188</ele>
        <time>2021-04-09T19:03:48.175Z</time>
      </trkpt>
      <trkpt lat="45.76287" lon="5.88697">
        <ele>818.161785</ele>
        <time>2021-04-09T19:03:54.302Z</time>
      </trkpt>
      <trkpt lat="45.76295" lon="5.88738">
        <ele>817.715922</ele>
        <time>2021-04-09T19:04:07.231Z</time>
      </trkpt>
      <trkpt lat="45.76281" lon="5.88762">
        <ele>817.370666</ele>
        <time>2021-04-09T19:04:17.194Z</time>
      </trkpt>
      <trkpt lat="45.76261" lon="5.88774">
        <ele>816.601542</ele>
        <time>2021-04-09T19:04:26.431Z</time>
      </trkpt>
      <trkpt lat="45.76241" lon="5.88802">
        <ele>815.501643</ele>
        <time>2021-04-09T19:04:38.926Z</time>
      </trkpt>
      <trkpt lat="45.76218" lon="5.88809">
        <ele>814.596899</ele>
        <time>2021-04-09T19:04:49.242Z</time>
      </trkpt>
      <trkpt lat="45.76205" lon="5.88813">
        <ele>814.07752</ele>
        <time>2021-04-09T19:04:55.124Z</time>
      </trkpt>
      <trkpt lat="45.76126" lon="5.88809">
        <ele>811.01211</ele>
        <time>2021-04-09T19:05:30.051Z</time>
      </trkpt>
      <trkpt lat="45.76078" lon="5.88842">
        <ele>808.758767</ele>
        <time>2021-04-09T19:05:53.125Z</time>
      </trkpt>
      <trkpt lat="45.76038" lon="5.88853">
        <ele>806.96389</ele>
        <time>2021-04-09T19:06:11.013Z</time>
      </trkpt>
      <trkpt lat="45.7602" lon="5.88865">
        <ele>806.076329</ele>
        <time>2021-04-09T19:06:19.893Z</time>
      </trkpt>
      <trkpt lat="45.7601" lon="5.88874">
        <ele>805.534578</ele>
        <time>2021-04-09T19:06:25.336Z</time>
      </trkpt>
      <trkpt lat="45.7597" lon="5.88895">
        <ele>803.648341</ele>
        <time>2021-04-09T19:06:43.905Z</time>
      </trkpt>
      <trkpt lat="45.75871" lon="5.88967">
        <ele>797.440839</ele>
        <time>2021-04-09T19:07:30.767Z</time>
      </trkpt>
      <trkpt lat="45.75769" lon="5.88995">
        <ele>791.282344</ele>
        <time>2021-04-09T19:08:14.036Z</time>
      </trkpt>
      <trkpt lat="45.75741" lon="5.89028">
        <ele>789.500059</ele>
        <time>2021-04-09T19:08:29.496Z</time>
      </trkpt>
      <trkpt lat="45.75658" lon="5.89039">
        <ele>785.483481</ele>
        <time>2021-04-09T19:09:04.639Z</time>
      </trkpt>
      <trkpt lat="45.75618" lon="5.89117">
        <ele>783.211759</ele>
        <time>2021-04-09T19:09:35.187Z</time>
      </trkpt>
      <trkpt lat="45.75608" lon="5.89122">
        <ele>783.439717</ele>
        <time>2021-04-09T19:09:40.027Z</time>
      </trkpt>
      <trkpt lat="45.75599" lon="5.8911">
        <ele>783.70772</ele>
        <time>2021-04-09T19:09:45.670Z</time>
      </trkpt>
      <trkpt lat="45.75599" lon="5.89103">
        <ele>783.815373</ele>
        <time>2021-04-09T19:09:48.012Z</time>
      </trkpt>
      <trkpt lat="45.75593" lon="5.89055">
        <ele>784.561721</ele>
        <time>2021-04-09T19:10:04.632Z</time>
      </trkpt>
      <trkpt lat="45.75583" lon="5.89042">
        <ele>784.849341</ele>
        <time>2021-04-09T19:10:11.359Z</time>
      </trkpt>
      <trkpt lat="45.75554" lon="5.89038">
        <ele>785.501398</ele>
        <time>2021-04-09T19:10:27.210Z</time>
      </trkpt>
      <trkpt lat="45.75525" lon="5.89069">
        <ele>786.300291</ele>
        <time>2021-04-09T19:10:48.342Z</time>
      </trkpt>
      <trkpt lat="45.75469" lon="5.8915">
        <ele>792.014371</ele>
        <time>2021-04-09T19:11:42.657Z</time>
      </trkpt>
      <trkpt lat="45.75453" lon="5.89197">
        <ele>795.511507</ele>
        <time>2021-04-09T19:12:11.507Z</time>
      </trkpt>
      <trkpt lat="45.75456" lon="5.89231">
        <ele>797.766534</ele>
        <time>2021-04-09T19:12:30.968Z</time>
      </trkpt>
      <trkpt lat="45.75462" lon="5.89248">
        <ele>799.029644</ele>
        <time>2021-04-09T19:12:41.620Z</time>
      </trkpt>
      <trkpt lat="45.75462" lon="5.89278">
        <ele>800.993342</ele>
        <time>2021-04-09T19:12:58.767Z</time>
      </trkpt>
      <trkpt lat="45.75438" lon="5.89297">
        <ele>803.605696</ele>
        <time>2021-04-09T19:13:21.161Z</time>
      </trkpt>
      <trkpt lat="45.75425" lon="5.8932">
        <ele>805.339055</ele>
        <time>2021-04-09T19:13:37.029Z</time>
      </trkpt>
      <trkpt lat="45.75389" lon="5.89361">
        <ele>809.19132</ele>
        <time>2021-04-09T19:14:12.276Z</time>
      </trkpt>
      <trkpt lat="45.75309" lon="5.89389">
        <ele>816.042957</ele>
        <time>2021-04-09T19:15:08.896Z</time>
      </trkpt>
      <trkpt lat="45.75292" lon="5.8941">
        <ele>817.915721</ele>
        <time>2021-04-09T19:15:23.180Z</time>
      </trkpt>
      <trkpt lat="45.75278" lon="5.89445">
        <ele>819.680824</ele>
        <time>2021-04-09T19:15:41.175Z</time>
      </trkpt>
      <trkpt lat="45.75261" lon="5.89472">
        <ele>820.823944</ele>
        <time>2021-04-09T19:15:56.520Z</time>
      </trkpt>
      <trkpt lat="45.75174" lon="5.89496">
        <ele>824.85907</ele>
        <time>2021-04-09T19:16:46.916Z</time>
      </trkpt>
      <trkpt lat="45.75166" lon="5.89517">
        <ele>825.606156</ele>
        <time>2021-04-09T19:16:56.427Z</time>
      </trkpt>
      <trkpt lat="45.75158" lon="5.89519">
        <ele>825.977462</ele>
        <time>2021-04-09T19:17:01.542Z</time>
      </trkpt>
      <trkpt lat="45.75138" lon="5.89538">
        <ele>827.06889</ele>
        <time>2021-04-09T19:17:14.582Z</time>
      </trkpt>
      <trkpt lat="45.75123" lon="5.8959">
        <ele>827.892497</ele>
        <time>2021-04-09T19:17:36.083Z</time>
      </trkpt>
      <trkpt lat="45.75087" lon="5.89637">
        <ele>828.907721</ele>
        <time>2021-04-09T19:18:02.236Z</time>
      </trkpt>
      <trkpt lat="45.75073" lon="5.89663">
        <ele>829.393511</ele>
        <time>2021-04-09T19:18:13.970Z</time>
      </trkpt>
      <trkpt lat="45.75064" lon="5.8967">
        <ele>829.60472</ele>
        <time>2021-04-09T19:18:19.689Z</time>
      </trkpt>
      <trkpt lat="45.75045" lon="5.8966">
        <ele>830.03805</ele>
        <time>2021-04-09T19:18:29.698Z</time>
      </trkpt>
      <trkpt lat="45.75027" lon="5.89663">
        <ele>830.411467</ele>
        <time>2021-04-09T19:18:39.053Z</time>
      </trkpt>
      <trkpt lat="45.74998" lon="5.89689">
        <ele>830.647496</ele>
        <time>2021-04-09T19:18:56.112Z</time>
      </trkpt>
      <trkpt lat="45.74986" lon="5.89719">
        <ele>830.302912</ele>
        <time>2021-04-09T19:19:07.664Z</time>
      </trkpt>
      <trkpt lat="45.74972" lon="5.89724">
        <ele>830.099025</ele>
        <time>2021-04-09T19:19:15.162Z</time>
      </trkpt>
      <trkpt lat="45.74972" lon="5.89724">
        <ele>830.099025</ele>
        <time>2021-04-09T19:19:15.173Z</time>
      </trkpt>
      <trkpt lat="45.74952" lon="5.89773">
        <ele>829.535749</ele>
        <time>2021-04-09T19:19:33.644Z</time>
      </trkpt>
      <trkpt lat="45.74933" lon="5.89803">
        <ele>829.132122</ele>
        <time>2021-04-09T19:19:46.686Z</time>
      </trkpt>
      <trkpt lat="45.74919" lon="5.89778">
        <ele>828.81393</ele>
        <time>2021-04-09T19:19:56.511Z</time>
      </trkpt>
      <trkpt lat="45.74912" lon="5.89777">
        <ele>828.717071</ele>
        <time>2021-04-09T19:19:59.654Z</time>
      </trkpt>
      <trkpt lat="45.74903" lon="5.89804">
        <ele>828.415398</ele>
        <time>2021-04-09T19:20:08.999Z</time>
      </trkpt>
      <trkpt lat="45.74875" lon="5.89851">
        <ele>827.483469</ele>
        <time>2021-04-09T19:20:28.775Z</time>
      </trkpt>
      <trkpt lat="45.74869" lon="5.89869">
        <ele>827.162339</ele>
        <time>2021-04-09T19:20:35.163Z</time>
      </trkpt>
      <trkpt lat="45.74863" lon="5.89877">
        <ele>826.970659</ele>
        <time>2021-04-09T19:20:38.457Z</time>
      </trkpt>
      <trkpt lat="45.74838" lon="5.8988">
        <ele>826.376294</ele>
        <time>2021-04-09T19:20:50.280Z</time>
      </trkpt>
      <trkpt lat="45.74813" lon="5.89906">
        <ele>825.646641</ele>
        <time>2021-04-09T19:21:04.453Z</time>
      </trkpt>
      <trkpt lat="45.74793" lon="5.89942">
        <ele>824.892057</ele>
        <time>2021-04-09T19:21:19.217Z</time>
      </trkpt>
      <trkpt lat="45.74781" lon="5.89947">
        <ele>824.599791</ele>
        <time>2021-04-09T19:21:25.027Z</time>
      </trkpt>
      <trkpt lat="45.74765" lon="5.8997">
        <ele>824.082833</ele>
        <time>2021-04-09T19:21:35.039Z</time>
      </trkpt>
      <trkpt lat="45.74763" lon="5.89986">
        <ele>823.950276</ele>
        <time>2021-04-09T19:21:40.403Z</time>
      </trkpt>
      <trkpt lat="45.74739" lon="5.90023">
        <ele>823.584409</ele>
        <time>2021-04-09T19:21:56.855Z</time>
      </trkpt>
      <trkpt lat="45.74734" lon="5.90077">
        <ele>823.201588</ele>
        <time>2021-04-09T19:22:14.940Z</time>
      </trkpt>
      <trkpt lat="45.74722" lon="5.90101">
        <ele>822.991708</ele>
        <time>2021-04-09T19:22:24.952Z</time>
      </trkpt>
      <trkpt lat="45.74717" lon="5.9013">
        <ele>822.779195</ele>
        <time>2021-04-09T19:22:34.890Z</time>
      </trkpt>
      <trkpt lat="45.74709" lon="5.90137">
        <ele>822.689003</ele>
        <time>2021-04-09T19:22:39.133Z</time>
      </trkpt>
      <trkpt lat="45.74691" lon="5.90201">
        <ele>822.118517</ele>
        <time>2021-04-09T19:23:02.181Z</time>
      </trkpt>
      <trkpt lat="45.74683" lon="5.90218">
        <ele>821.488394</ele>
        <time>2021-04-09T19:23:08.864Z</time>
      </trkpt>
      <trkpt lat="45.74646" lon="5.9029">
        <ele>818.762818</ele>
        <time>2021-04-09T19:23:37.577Z</time>
      </trkpt>
      <trkpt lat="45.7464" lon="5.90294">
        <ele>818.476251</ele>
        <time>2021-04-09T19:23:40.543Z</time>
      </trkpt>
      <trkpt lat="45.74629" lon="5.90322">
        <ele>817.509297</ele>
        <time>2021-04-09T19:23:50.034Z</time>
      </trkpt>
      <trkpt lat="45.74592" lon="5.90371">
        <ele>815.298771</ele>
        <time>2021-04-09T19:24:10.940Z</time>
      </trkpt>
      <trkpt lat="45.74588" lon="5.90436">
        <ele>812.509942</ele>
        <time>2021-04-09T19:24:29.666Z</time>
      </trkpt>
      <trkpt lat="45.74582" lon="5.90461">
        <ele>811.109964</ele>
        <time>2021-04-09T19:24:37.079Z</time>
      </trkpt>
      <trkpt lat="45.7459" lon="5.90475">
        <ele>810.162504</ele>
        <time>2021-04-09T19:24:42.619Z</time>
      </trkpt>
      <trkpt lat="45.74597" lon="5.90477">
        <ele>809.638873</ele>
        <time>2021-04-09T19:24:45.397Z</time>
      </trkpt>
      <trkpt lat="45.74592" lon="5.90486">
        <ele>809.05732</ele>
        <time>2021-04-09T19:24:48.591Z</time>
      </trkpt>
      <trkpt lat="45.7459" lon="5.90498">
        <ele>808.393712</ele>
        <time>2021-04-09T19:24:52.223Z</time>
      </trkpt>
      <trkpt lat="45.74586" lon="5.90524">
        <ele>806.986781</ele>
        <time>2021-04-09T19:25:00.046Z</time>
      </trkpt>
      <trkpt lat="45.74576" lon="5.90573">
        <ele>804.278173</ele>
        <time>2021-04-09T19:25:14.489Z</time>
      </trkpt>
      <trkpt lat="45.74579" lon="5.9059">
        <ele>803.341419</ele>
        <time>2021-04-09T19:25:19.144Z</time>
      </trkpt>
      <trkpt lat="45.74597" lon="5.90599">
        <ele>801.858517</ele>
        <time>2021-04-09T19:25:27.464Z</time>
      </trkpt>
      <trkpt lat="45.74633" lon="5.90577">
        <ele>799.285669</ele>
        <time>2021-04-09T19:25:42.755Z</time>
      </trkpt>
      <trkpt lat="45.74643" lon="5.90572">
        <ele>798.6327</ele>
        <time>2021-04-09T19:25:46.801Z</time>
      </trkpt>
      <trkpt lat="45.74663" lon="5.90577">
        <ele>797.362518</ele>
        <time>2021-04-09T19:25:55.426Z</time>
      </trkpt>
      <trkpt lat="45.74674" lon="5.9059">
        <ele>796.504687</ele>
        <time>2021-04-09T19:26:01.258Z</time>
      </trkpt>
      <trkpt lat="45.74674" lon="5.9059">
        <ele>796.504687</ele>
        <time>2021-04-09T19:26:01.338Z</time>
      </trkpt>
      <trkpt lat="45.74673" lon="5.90608">
        <ele>795.722579</ele>
        <time>2021-04-09T19:26:06.676Z</time>
      </trkpt>
      <trkpt lat="45.74672" lon="5.90627">
        <ele>794.887124</ele>
        <time>2021-04-09T19:26:13.219Z</time>
      </trkpt>
      <trkpt lat="45.74677" lon="5.9064">
        <ele>794.258858</ele>
        <time>2021-04-09T19:26:17.339Z</time>
      </trkpt>
      <trkpt lat="45.74688" lon="5.90632">
        <ele>793.493887</ele>
        <time>2021-04-09T19:26:22.661Z</time>
      </trkpt>
      <trkpt lat="45.74724" lon="5.90588">
        <ele>790.669845</ele>
        <time>2021-04-09T19:26:43.277Z</time>
      </trkpt>
      <trkpt lat="45.74744" lon="5.90579">
        <ele>789.576517</ele>
        <time>2021-04-09T19:26:52.502Z</time>
      </trkpt>
      <trkpt lat="45.74771" lon="5.90579">
        <ele>788.963592</ele>
        <time>2021-04-09T19:27:03.696Z</time>
      </trkpt>
      <trkpt lat="45.74832" lon="5.90532">
        <ele>787.370329</ele>
        <time>2021-04-09T19:27:34.798Z</time>
      </trkpt>
      <trkpt lat="45.74869" lon="5.90519">
        <ele>786.48575</ele>
        <time>2021-04-09T19:27:52.987Z</time>
      </trkpt>
      <trkpt lat="45.74904" lon="5.9048">
        <ele>785.716118</ele>
        <time>2021-04-09T19:28:14.190Z</time>
      </trkpt>
      <trkpt lat="45.74935" lon="5.90424">
        <ele>787.233538</ele>
        <time>2021-04-09T19:28:38.736Z</time>
      </trkpt>
      <trkpt lat="45.7496" lon="5.90392">
        <ele>788.266796</ele>
        <time>2021-04-09T19:28:55.961Z</time>
      </trkpt>
      <trkpt lat="45.74979" lon="5.90383">
        <ele>788.87968</ele>
        <time>2021-04-09T19:29:07.859Z</time>
      </trkpt>
      <trkpt lat="45.74999" lon="5.90333">
        <ele>790.108501</ele>
        <time>2021-04-09T19:29:31.094Z</time>
      </trkpt>
      <trkpt lat="45.75018" lon="5.90299">
        <ele>791.040069</ele>
        <time>2021-04-09T19:29:50.923Z</time>
      </trkpt>
      <trkpt lat="45.75041" lon="5.90283">
        <ele>792.2579</ele>
        <time>2021-04-09T19:30:07.274Z</time>
      </trkpt>
      <trkpt lat="45.75065" lon="5.90275">
        <ele>793.45049</ele>
        <time>2021-04-09T19:30:21.381Z</time>
      </trkpt>
      <trkpt lat="45.75064" lon="5.9025">
        <ele>794.307472</ele>
        <time>2021-04-09T19:30:33.255Z</time>
      </trkpt>
      <trkpt lat="45.75056" lon="5.90201">
        <ele>796.000566</ele>
        <time>2021-04-09T19:30:54.033Z</time>
      </trkpt>
      <trkpt lat="45.75065" lon="5.90183">
        <ele>796.756417</ele>
        <time>2021-04-09T19:31:02.341Z</time>
      </trkpt>
      <trkpt lat="45.75092" lon="5.90135">
        <ele>798.86701</ele>
        <time>2021-04-09T19:31:27.780Z</time>
      </trkpt>
      <trkpt lat="45.75118" lon="5.9017">
        <ele>800.012425</ele>
        <time>2021-04-09T19:31:47.584Z</time>
      </trkpt>
      <trkpt lat="45.75134" lon="5.90178">
        <ele>800.232326</ele>
        <time>2021-04-09T19:31:57.781Z</time>
      </trkpt>
      <trkpt lat="45.75161" lon="5.90175">
        <ele>800.592929</ele>
        <time>2021-04-09T19:32:12.033Z</time>
      </trkpt>
      <trkpt lat="45.75185" lon="5.90155">
        <ele>800.951041</ele>
        <time>2021-04-09T19:32:25.980Z</time>
      </trkpt>
      <trkpt lat="45.75214" lon="5.9012">
        <ele>801.444142</ele>
        <time>2021-04-09T19:32:44.634Z</time>
      </trkpt>
      <trkpt lat="45.75252" lon="5.90036">
        <ele>802.115464</ele>
        <time>2021-04-09T19:33:17.883Z</time>
      </trkpt>
      <trkpt lat="45.75312" lon="5.89942">
        <ele>801.983521</ele>
        <time>2021-04-09T19:34:01.323Z</time>
      </trkpt>
      <trkpt lat="45.75365" lon="5.89819">
        <ele>801.16951</ele>
        <time>2021-04-09T19:34:49.977Z</time>
      </trkpt>
      <trkpt lat="45.75384" lon="5.89741">
        <ele>799.599382</ele>
        <time>2021-04-09T19:35:16.830Z</time>
      </trkpt>
      <trkpt lat="45.75424" lon="5.89632">
        <ele>797.280723</ele>
        <time>2021-04-09T19:35:54.987Z</time>
      </trkpt>
      <trkpt lat="45.75455" lon="5.89584">
        <ele>794.226463</ele>
        <time>2021-04-09T19:36:14.555Z</time>
      </trkpt>
      <trkpt lat="45.75499" lon="5.89532">
        <ele>789.776841</ele>
        <time>2021-04-09T19:36:37.464Z</time>
      </trkpt>
      <trkpt lat="45.75545" lon="5.89464">
        <ele>784.515721</ele>
        <time>2021-04-09T19:37:03.926Z</time>
      </trkpt>
      <trkpt lat="45.75571" lon="5.89433">
        <ele>781.551734</ele>
        <time>2021-04-09T19:37:16.937Z</time>
      </trkpt>
      <trkpt lat="45.75601" lon="5.89432">
        <ele>778.28657</ele>
        <time>2021-04-09T19:37:28.570Z</time>
      </trkpt>
      <trkpt lat="45.75656" lon="5.89413">
        <ele>772.160486</ele>
        <time>2021-04-09T19:37:50.071Z</time>
      </trkpt>
      <trkpt lat="45.75775" lon="5.89442">
        <ele>759.204973</ele>
        <time>2021-04-09T19:38:36.195Z</time>
      </trkpt>
      <trkpt lat="45.7579" lon="5.89456">
        <ele>757.370216</ele>
        <time>2021-04-09T19:38:43.369Z</time>
      </trkpt>
      <trkpt lat="45.7579" lon="5.89456">
        <ele>757.370216</ele>
        <time>2021-04-09T19:38:43.533Z</time>
      </trkpt>
      <trkpt lat="45.75798" lon="5.89465">
        <ele>756.331959</ele>
        <time>2021-04-09T19:38:47.356Z</time>
      </trkpt>
      <trkpt lat="45.7582" lon="5.89469">
        <ele>754.064257</ele>
        <time>2021-04-09T19:38:56.299Z</time>
      </trkpt>
      <trkpt lat="45.75896" lon="5.89466">
        <ele>746.274916</ele>
        <time>2021-04-09T19:39:25.515Z</time>
      </trkpt>
      <trkpt lat="45.75972" lon="5.89436">
        <ele>739.66176</ele>
        <time>2021-04-09T19:39:56.753Z</time>
      </trkpt>
      <trkpt lat="45.7602" lon="5.89408">
        <ele>735.509615</ele>
        <time>2021-04-09T19:40:18.367Z</time>
      </trkpt>
      <trkpt lat="45.76066" lon="5.89365">
        <ele>731.103417</ele>
        <time>2021-04-09T19:40:40.907Z</time>
      </trkpt>
      <trkpt lat="45.761" lon="5.89355">
        <ele>728.106325</ele>
        <time>2021-04-09T19:40:54.715Z</time>
      </trkpt>
      <trkpt lat="45.76121" lon="5.89341">
        <ele>725.98957</ele>
        <time>2021-04-09T19:41:04.101Z</time>
      </trkpt>
      <trkpt lat="45.76149" lon="5.8931">
        <ele>722.822542</ele>
        <time>2021-04-09T19:41:18.212Z</time>
      </trkpt>
      <trkpt lat="45.76171" lon="5.89295">
        <ele>720.551046</ele>
        <time>2021-04-09T19:41:28.428Z</time>
      </trkpt>
      <trkpt lat="45.76184" lon="5.8929">
        <ele>719.399933</ele>
        <time>2021-04-09T19:41:33.284Z</time>
      </trkpt>
      <trkpt lat="45.76213" lon="5.89277">
        <ele>716.603904</ele>
        <time>2021-04-09T19:41:45.551Z</time>
      </trkpt>
      <trkpt lat="45.76268" lon="5.89264">
        <ele>710.711876</ele>
        <time>2021-04-09T19:42:06.730Z</time>
      </trkpt>
      <trkpt lat="45.7633" lon="5.89233">
        <ele>702.660085</ele>
        <time>2021-04-09T19:42:31.694Z</time>
      </trkpt>
      <trkpt lat="45.76418" lon="5.8923">
        <ele>691.917615</ele>
        <time>2021-04-09T19:43:05.040Z</time>
      </trkpt>
      <trkpt lat="45.76446" lon="5.89204">
        <ele>687.917733</ele>
        <time>2021-04-09T19:43:17.723Z</time>
      </trkpt>
      <trkpt lat="45.76491" lon="5.89193">
        <ele>682.512501</ele>
        <time>2021-04-09T19:43:34.934Z</time>
      </trkpt>
      <trkpt lat="45.76519" lon="5.89193">
        <ele>679.167115</ele>
        <time>2021-04-09T19:43:45.566Z</time>
      </trkpt>
      <trkpt lat="45.76564" lon="5.89201">
        <ele>673.696783</ele>
        <time>2021-04-09T19:44:03.109Z</time>
      </trkpt>
      <trkpt lat="45.76577" lon="5.89203">
        <ele>672.221078</ele>
        <time>2021-04-09T19:44:07.794Z</time>
      </trkpt>
      <trkpt lat="45.76581" lon="5.892">
        <ele>671.626109</ele>
        <time>2021-04-09T19:44:09.679Z</time>
      </trkpt>
      <trkpt lat="45.76734" lon="5.89097">
        <ele>659.841091</ele>
        <time>2021-04-09T19:45:19.383Z</time>
      </trkpt>
      <trkpt lat="45.76744" lon="5.89079">
        <ele>658.740902</ele>
        <time>2021-04-09T19:45:26.770Z</time>
      </trkpt>
      <trkpt lat="45.76832" lon="5.89009">
        <ele>656.793787</ele>
        <time>2021-04-09T19:46:12.330Z</time>
      </trkpt>
      <trkpt lat="45.76891" lon="5.88985">
        <ele>655.651681</ele>
        <time>2021-04-09T19:46:41.178Z</time>
      </trkpt>
      <trkpt lat="45.76962" lon="5.88939">
        <ele>657.427996</ele>
        <time>2021-04-09T19:47:20.061Z</time>
      </trkpt>
      <trkpt lat="45.7697" lon="5.88932">
        <ele>657.78411</ele>
        <time>2021-04-09T19:47:24.848Z</time>
      </trkpt>
      <trkpt lat="45.76977" lon="5.88926">
        <ele>658.081181</ele>
        <time>2021-04-09T19:47:29.668Z</time>
      </trkpt>
      <trkpt lat="45.76991" lon="5.88907">
        <ele>658.805877</ele>
        <time>2021-04-09T19:47:39.947Z</time>
      </trkpt>
      <trkpt lat="45.77019" lon="5.88887">
        <ele>659.974297</ele>
        <time>2021-04-09T19:47:57.200Z</time>
      </trkpt>
      <trkpt lat="45.77036" lon="5.88866">
        <ele>660.800867</ele>
        <time>2021-04-09T19:48:12.760Z</time>
      </trkpt>
      <trkpt lat="45.77053" lon="5.88846">
        <ele>661.605569</ele>
        <time>2021-04-09T19:48:25.499Z</time>
      </trkpt>
      <trkpt lat="45.77067" lon="5.8883">
        <ele>662.866503</ele>
        <time>2021-04-09T19:48:40.069Z</time>
      </trkpt>
      <trkpt lat="45.7711" lon="5.8877">
        <ele>669.091916</ele>
        <time>2021-04-09T19:49:24.120Z</time>
      </trkpt>
      <trkpt lat="45.77116" lon="5.8873">
        <ele>672.035943</ele>
        <time>2021-04-09T19:49:43.343Z</time>
      </trkpt>
      <trkpt lat="45.77117" lon="5.88726">
        <ele>672.363962</ele>
        <time>2021-04-09T19:49:46.750Z</time>
      </trkpt>
      <trkpt lat="45.77117" lon="5.88726">
        <ele>672.363962</ele>
        <time>2021-04-09T19:49:47.754Z</time>
      </trkpt>
      <trkpt lat="45.77104" lon="5.88708">
        <ele>674.267669</ele>
        <time>2021-04-09T19:50:01.365Z</time>
      </trkpt>
      <trkpt lat="45.77075" lon="5.8871">
        <ele>677.205504</ele>
        <time>2021-04-09T19:50:24.622Z</time>
      </trkpt>
      <trkpt lat="45.76984" lon="5.88744">
        <ele>689.776881</ele>
        <time>2021-04-09T19:51:49.230Z</time>
      </trkpt>
      <trkpt lat="45.76952" lon="5.88741">
        <ele>694.474473</ele>
        <time>2021-04-09T19:52:20.701Z</time>
      </trkpt>
      <trkpt lat="45.76926" lon="5.88751">
        <ele>698.422192</ele>
        <time>2021-04-09T19:52:44.434Z</time>
      </trkpt>
      <trkpt lat="45.7691" lon="5.88756">
        <ele>700.827662</ele>
        <time>2021-04-09T19:53:00.499Z</time>
      </trkpt>
      <trkpt lat="45.76881" lon="5.88765">
        <ele>705.218563</ele>
        <time>2021-04-09T19:53:28.842Z</time>
      </trkpt>
      <trkpt lat="45.76845" lon="5.88793">
        <ele>711.887721</ele>
        <time>2021-04-09T19:54:09.752Z</time>
      </trkpt>
      <trkpt lat="45.76823" lon="5.888">
        <ele>715.583727</ele>
        <time>2021-04-09T19:54:31.150Z</time>
      </trkpt>
      <trkpt lat="45.76787" lon="5.88798">
        <ele>721.63768</ele>
        <time>2021-04-09T19:55:08.409Z</time>
      </trkpt>
      <trkpt lat="45.76768" lon="5.88808">
        <ele>724.995869</ele>
        <time>2021-04-09T19:55:30.067Z</time>
      </trkpt>
      <trkpt lat="45.76745" lon="5.8879">
        <ele>729.346178</ele>
        <time>2021-04-09T19:55:56.089Z</time>
      </trkpt>
      <trkpt lat="45.76708" lon="5.88804">
        <ele>735.842295</ele>
        <time>2021-04-09T19:56:34.982Z</time>
      </trkpt>
      <trkpt lat="45.7664" lon="5.88803">
        <ele>745.677362</ele>
        <time>2021-04-09T19:57:42.059Z</time>
      </trkpt>
      <trkpt lat="45.76598" lon="5.88814">
        <ele>751.780929</ele>
        <time>2021-04-09T19:58:22.344Z</time>
      </trkpt>
      <trkpt lat="45.76574" lon="5.88825">
        <ele>755.273412</ele>
        <time>2021-04-09T19:58:42.793Z</time>
      </trkpt>
      <trkpt lat="45.76574" lon="5.88825">
        <ele>755.273412</ele>
        <time>2021-04-09T19:58:43.788Z</time>
      </trkpt>
      <trkpt lat="45.76582" lon="5.88808">
        <ele>757.287085</ele>
        <time>2021-04-09T19:58:56.516Z</time>
      </trkpt>
      <trkpt lat="45.76637" lon="5.88717">
        <ele>767.036179</ele>
        <time>2021-04-09T20:00:05.115Z</time>
      </trkpt>
      <trkpt lat="45.76722" lon="5.88623">
        <ele>777.228557</ele>
        <time>2021-04-09T20:01:30.975Z</time>
      </trkpt>
      <trkpt lat="45.76741" lon="5.8861">
        <ele>779.235051</ele>
        <time>2021-04-09T20:01:43.319Z</time>
      </trkpt>
      <trkpt lat="45.76717" lon="5.88567">
        <ele>779.917423</ele>
        <time>2021-04-09T20:02:05.450Z</time>
      </trkpt>
      <trkpt lat="45.7669" lon="5.88515">
        <ele>780.02636</ele>
        <time>2021-04-09T20:02:29.869Z</time>
      </trkpt>
      <trkpt lat="45.76699" lon="5.88502">
        <ele>780.056715</ele>
        <time>2021-04-09T20:02:36.237Z</time>
      </trkpt>
      <trkpt lat="45.767" lon="5.88503">
        <ele>780.061153</ele>
        <time>2021-04-09T20:02:37.075Z</time>
      </trkpt>
      <trkpt lat="45.76713" lon="5.88497">
        <ele>780.093495</ele>
        <time>2021-04-09T20:02:44.447Z</time>
      </trkpt>
      <trkpt lat="45.76731" lon="5.88498">
        <ele>780.138087</ele>
        <time>2021-04-09T20:02:55.331Z</time>
      </trkpt>
      <trkpt lat="45.76755" lon="5.88488">
        <ele>780.199385</ele>
        <time>2021-04-09T20:03:09.154Z</time>
      </trkpt>
      <trkpt lat="45.76834" lon="5.88429">
        <ele>775.165133</ele>
        <time>2021-04-09T20:03:52.553Z</time>
      </trkpt>
      <trkpt lat="45.76917" lon="5.88397">
        <ele>767.460126</ele>
        <time>2021-04-09T20:04:31.893Z</time>
      </trkpt>
      <trkpt lat="45.76957" lon="5.88365">
        <ele>763.246436</ele>
        <time>2021-04-09T20:04:52.591Z</time>
      </trkpt>
      <trkpt lat="45.77034" lon="5.88134">
        <ele>744.017614</ele>
        <time>2021-04-09T20:06:13.820Z</time>
      </trkpt>
      <trkpt lat="45.77055" lon="5.88102">
        <ele>740.236396</ele>
        <time>2021-04-09T20:06:27.675Z</time>
      </trkpt>
      <trkpt lat="45.77074" lon="5.88047">
        <ele>734.965013</ele>
        <time>2021-04-09T20:06:46.988Z</time>
      </trkpt>
      <trkpt lat="45.77092" lon="5.88014">
        <ele>731.328085</ele>
        <time>2021-04-09T20:06:58.250Z</time>
      </trkpt>
      <trkpt lat="45.77157" lon="5.87943">
        <ele>721.632276</ele>
        <time>2021-04-09T20:07:28.988Z</time>
      </trkpt>
      <trkpt lat="45.77189" lon="5.87921">
        <ele>717.946474</ele>
        <time>2021-04-09T20:07:42.442Z</time>
      </trkpt>
      <trkpt lat="45.77199" lon="5.87921">
        <ele>716.88601</ele>
        <time>2021-04-09T20:07:46.303Z</time>
      </trkpt>
      <trkpt lat="45.77227" lon="5.87943">
        <ele>713.547675</ele>
        <time>2021-04-09T20:07:58.496Z</time>
      </trkpt>
      <trkpt lat="45.7724" lon="5.87942">
        <ele>712.216465</ele>
        <time>2021-04-09T20:08:03.369Z</time>
      </trkpt>
      <trkpt lat="45.77259" lon="5.87918">
        <ele>709.620196</ele>
        <time>2021-04-09T20:08:13.200Z</time>
      </trkpt>
      <trkpt lat="45.77267" lon="5.87915">
        <ele>708.765903</ele>
        <time>2021-04-09T20:08:16.379Z</time>
      </trkpt>
      <trkpt lat="45.77334" lon="5.87946">
        <ele>703.265519</ele>
        <time>2021-04-09T20:08:45.186Z</time>
      </trkpt>
      <trkpt lat="45.77336" lon="5.87943">
        <ele>703.163097</ele>
        <time>2021-04-09T20:08:46.286Z</time>
      </trkpt>
      <trkpt lat="45.77367" lon="5.87892">
        <ele>701.486927</ele>
        <time>2021-04-09T20:09:06.443Z</time>
      </trkpt>
      <trkpt lat="45.77384" lon="5.87817">
        <ele>699.529522</ele>
        <time>2021-04-09T20:09:31.338Z</time>
      </trkpt>
      <trkpt lat="45.7742" lon="5.87739">
        <ele>698.357693</ele>
        <time>2021-04-09T20:10:02.991Z</time>
      </trkpt>
      <trkpt lat="45.77432" lon="5.87692">
        <ele>699.388928</ele>
        <time>2021-04-09T20:10:20.626Z</time>
      </trkpt>
      <trkpt lat="45.77434" lon="5.87661">
        <ele>700.062247</ele>
        <time>2021-04-09T20:10:32.746Z</time>
      </trkpt>
      <trkpt lat="45.77433" lon="5.87644">
        <ele>700.418921</ele>
        <time>2021-04-09T20:10:38.886Z</time>
      </trkpt>
      <trkpt lat="45.77427" lon="5.87642">
        <ele>700.626493</ele>
        <time>2021-04-09T20:10:44.117Z</time>
      </trkpt>
      <trkpt lat="45.77409" lon="5.87656">
        <ele>701.221842</ele>
        <time>2021-04-09T20:10:54.484Z</time>
      </trkpt>
      <trkpt lat="45.774" lon="5.87664">
        <ele>701.560994</ele>
        <time>2021-04-09T20:11:00.899Z</time>
      </trkpt>
      <trkpt lat="45.77394" lon="5.87675">
        <ele>701.852385</ele>
        <time>2021-04-09T20:11:07.100Z</time>
      </trkpt>
      <trkpt lat="45.77364" lon="5.87694">
        <ele>702.833524</ele>
        <time>2021-04-09T20:11:26.136Z</time>
      </trkpt>
      <trkpt lat="45.77298" lon="5.87769">
        <ele>705.763568</ele>
        <time>2021-04-09T20:12:15.477Z</time>
      </trkpt>
      <trkpt lat="45.77283" lon="5.87778">
        <ele>706.371828</ele>
        <time>2021-04-09T20:12:25.078Z</time>
      </trkpt>
      <trkpt lat="45.77274" lon="5.87801">
        <ele>707.024614</ele>
        <time>2021-04-09T20:12:35.092Z</time>
      </trkpt>
      <trkpt lat="45.77249" lon="5.87809">
        <ele>707.950116</ele>
        <time>2021-04-09T20:12:49.222Z</time>
      </trkpt>
      <trkpt lat="45.77227" lon="5.87798">
        <ele>708.777231</ele>
        <time>2021-04-09T20:13:01.634Z</time>
      </trkpt>
      <trkpt lat="45.77217" lon="5.87767">
        <ele>709.63617</ele>
        <time>2021-04-09T20:13:14.284Z</time>
      </trkpt>
      <trkpt lat="45.77215" lon="5.87762">
        <ele>709.713913</ele>
        <time>2021-04-09T20:13:16.348Z</time>
      </trkpt>
      <trkpt lat="45.77227" lon="5.87743">
        <ele>709.713913</ele>
        <time>2021-04-09T20:13:25.689Z</time>
      </trkpt>
      <trkpt lat="45.77276" lon="5.87656">
        <ele>709.713913</ele>
        <time>2021-04-09T20:14:05.253Z</time>
      </trkpt>
      <trkpt lat="45.77299" lon="5.87625">
        <ele>709.713913</ele>
        <time>2021-04-09T20:14:20.696Z</time>
      </trkpt>
      <trkpt lat="45.77321" lon="5.87596">
        <ele>709.713913</ele>
        <time>2021-04-09T20:14:35.132Z</time>
      </trkpt>
      <trkpt lat="45.77332" lon="5.87555">
        <ele>709.713913</ele>
        <time>2021-04-09T20:14:50.050Z</time>
      </trkpt>
      <trkpt lat="45.77337" lon="5.87548">
        <ele>709.713913</ele>
        <time>2021-04-09T20:14:53.135Z</time>
      </trkpt>
      <trkpt lat="45.77348" lon="5.87533">
        <ele>709.713913</ele>
        <time>2021-04-09T20:15:00.556Z</time>
      </trkpt>
      <trkpt lat="45.77345" lon="5.87531">
        <ele>709.713913</ele>
        <time>2021-04-09T20:15:01.636Z</time>
      </trkpt>
      <trkpt lat="45.77343" lon="5.87523">
        <ele>709.713913</ele>
        <time>2021-04-09T20:15:04.218Z</time>
      </trkpt>
      <trkpt lat="45.77344" lon="5.87518">
        <ele>709.713913</ele>
        <time>2021-04-09T20:15:05.556Z</time>
      </trkpt>
      <trkpt lat="45.7734" lon="5.87516">
        <ele>709.713913</ele>
        <time>2021-04-09T20:15:07.050Z</time>
      </trkpt>
      <trkpt lat="45.77332" lon="5.87506">
        <ele>709.713913</ele>
        <time>2021-04-09T20:15:11.575Z</time>
      </trkpt>
      <trkpt lat="45.7733" lon="5.87505">
        <ele>709.713913</ele>
        <time>2021-04-09T20:15:12.506Z</time>
      </trkpt>
    </trkseg>
  </trk>
</gpx>